AirNav   Bose ProFlight Series 2 Headset
 
 665 users online  

UT46 Tooele Army Depot/South Area Heliport
Tooele, Utah, USA

GOING TO TOOELE?


FAA INFORMATION EFFECTIVE 02 JANUARY 2020

Location

FAA Identifier: UT46
Lat/Long: 40-19-02.8040N 112-18-30.8120W
40-19.046733N 112-18.513533W
40.3174456,-112.3085589
(estimated)
Elevation: 5355 ft. / 1632 m (estimated)
Variation: 14E (1990)
From city: 8 miles N of TOOELE, UT
Time zone: UTC -7 (UTC -6 during Daylight Saving Time)
Zip code: 84071

Heliport Operations

Heliport use: Private use. Permission required prior to landing
Activation date: 11/2002
Control tower: no
ARTCC: SALT LAKE CITY CENTER
FSS: CEDAR CITY FLIGHT SERVICE STATION
Attendance: UNATNDD
Wind indicator: yes
Segmented circle: no
Lights: SS-SR

Heliport Communications

WX AWOS-3 at TVY (18 nm N): 119.725 (435-882-6648)

Nearby radio navigation aids

VOR radial/distance  VOR name  Freq  Var
FFUr263/17.0FAIRFIELD VORTAC116.6016E
PVUr268/27.6PROVO VOR/DME108.4015E
TCHr189/35.3WASATCH VORTAC116.8016E

Heliport Services

Runway Information

Helipad H1

Dimensions: 75 x 75 ft. / 23 x 23 m
Surface: concrete
Runway edge lights: PERI
Latitude: 40-19.046733N
Longitude: 112-18.513533W
Elevation: 5355.0 ft.
Traffic pattern: leftleft

Heliport Ownership and Management from official FAA records

Ownership: Privately-owned
Owner: UNITED STATES ARMY
CHIEF, FACILITIES ENGINEERING
TOOELE, UT 84074
Phone 435-833-2114
Manager: SDSTE-IO-E, TOOELE ARMY DEPOT
TOOELE, UT 84074
Phone 801-833-2114

Additional Remarks

FOR CD CTC SALT LAKE CITY APCH AT 801-325-9670.

Instrument Procedures

There are no published instrument procedures at UT46.

Some nearby airports with instrument procedures:

KTVY - Bolinder Field-Tooele Valley Airport (18 nm N)
U42 - South Valley Regional Airport (23 nm NE)
KPVU - Provo Municipal Airport (27 nm E)
KDPG - Michael Army Airfield (Dugway Proving Ground) (30 nm W)
KSPK - Spanish Fork Airport Springville-Woodhouse Field (31 nm E)
 
Loc | Ops | Rwys | IFR | FBO | Links
Com | Nav | Svcs | Stats | Notes
Area around UT46 (Tooele Army Depot/South Area Heliport)
 
Road maps at: MapQuest Bing Google
 
Aerial photo
No photo
 
Sectional chart

 
Airport distance calculator
Flying to Tooele Army Depot/South Area Heliport? Find the distance to fly.

From to UT46

Sunrise and sunset
Times for 19-Jan-2020
 Local
(UTC-7)
 Zulu
(UTC)
Morning civil twilight07:2014:20
Sunrise07:4914:49
Sunset17:3100:31
Evening civil twilight18:0101:01

Current date and time
Zulu (UTC)  19-Jan-2020 10:47:06
Local (UTC-7)  19-Jan-2020 03:47:06
 
METAR
KTVY 
18nm N 
191035Z AUTO 23004KT 10SM CLR M05/M07 A3052 RMK AO2
KU42 
23nm NE 
191035Z AUTO 21005KT 10SM CLR M04/M06 A3052 RMK AO1 T10401065
KPVU 
28nm E 
190956Z AUTO VRB06KT 10SM CLR M04/M09 A3053 RMK AO2 SLP369 T10441089 FZRANO
KSLC 
32nm NE 
190954Z 16004KT 10SM CLR M04/M06 A3051 RMK AO2 SLP347 I1000 T10441061
TAF
KPVU 
28nm E 
190543Z 1906/2006 VRB05KT P6SM SCT200 FM191800 25005KT P6SM SCT180
KSLC 
32nm NE 
190543Z 1906/2012 15005KT P6SM SCT150 SCT200 FM191800 33005KT P6SM SCT200 FM200200 15005KT P6SM SCT200
NOTAMs
Click for the latest NOTAMs
NOTAMs are issued by the DoD/FAA and will open in a separate window not controlled by AirNav.

 

 
 

Would you like to see your business listed on this page?

 If your business provides an interesting product or service to pilots, flight crews, aircraft, or users of the Tooele Army Depot/South Area Heliport, you should consider listing it here.  To start the listing process, click on the button below
 
Add a business
 

Other Pages about Tooele Army Depot/South Area Heliport

Update a link
 
Copyright © AirNav, LLC. All rights reserved. Privacy Policy  Contact